Time;durP1;ratioP1;P1;durP2;ratioP2;P2;SDS_P1;SDS_P2;PMS_P1;PMS_P2;Temp;Humidity;BMP_temperature;BMP_pressure;BME280_temperature;BME280_humidity;BME280_pressure;Samples;Min_cycle;Max_cycle;Signal;HPM_P1;HPM_P2
2021/01/29 00:01:06;;;;;;;6.65;4.82;;;;;;;18.43;46.96;99807.88;5001880;28;20026;-72
2021/01/29 00:03:31;;;;;;;6.45;4.88;;;;;;;18.46;46.87;99805.19;5000505;28;20041;-72
2021/01/29 00:06:02;;;;;;;6.75;5.50;;;;;;;18.45;47.08;99801.69;5017422;28;20045;-72
2021/01/29 00:08:27;;;;;;;5.15;3.83;;;;;;;18.44;46.91;99791.25;5018698;28;20496;-73
2021/01/29 00:10:56;;;;;;;5.78;4.53;;;;;;;18.44;47.02;99786.00;5015712;28;20086;-72
2021/01/29 00:13:22;;;;;;;5.88;4.82;;;;;;;18.40;46.90;99774.78;5016629;28;20065;-72
2021/01/29 00:15:51;;;;;;;5.50;4.40;;;;;;;18.38;47.16;99760.00;5000522;28;20080;-72
2021/01/29 00:18:16;;;;;;;8.90;5.13;;;;;;;18.42;47.18;99759.91;4999739;28;20559;-72
2021/01/29 00:20:42;;;;;;;6.13;4.57;;;;;;;18.40;47.12;99750.34;5014181;28;20045;-72
2021/01/29 00:23:07;;;;;;;7.65;4.50;;;;;;;18.38;47.16;99739.06;5013474;28;20464;-72
2021/01/29 00:25:38;;;;;;;5.28;4.53;;;;;;;18.40;46.97;99732.03;5018685;28;20022;-72
2021/01/29 00:28:04;;;;;;;6.57;5.32;;;;;;;18.41;46.98;99729.38;5015039;28;20061;-72
2021/01/29 00:30:30;;;;;;;5.05;3.92;;;;;;;18.40;46.88;99716.31;4999753;28;20448;-72
2021/01/29 00:32:56;;;;;;;6.50;4.63;;;;;;;18.42;46.81;99718.03;5011575;28;20045;-72
2021/01/29 00:35:24;;;;;;;5.43;4.30;;;;;;;18.40;47.06;99698.00;4991430;28;20065;-72
2021/01/29 00:37:49;;;;;;;4.95;4.38;;;;;;;18.38;46.85;99692.78;5017870;28;20095;-72
2021/01/29 00:40:16;;;;;;;6.25;4.75;;;;;;;18.37;47.12;99684.97;5015123;28;20517;-72
2021/01/29 00:42:42;;;;;;;5.25;4.68;;;;;;;18.38;47.13;99684.09;5016074;28;20029;-72
2021/01/29 00:45:10;;;;;;;6.80;4.43;;;;;;;18.37;46.83;99680.59;4998724;28;20044;-71
2021/01/29 00:47:37;;;;;;;6.60;4.50;;;;;;;18.37;46.87;99674.50;5017715;28;20095;-72
2021/01/29 00:50:05;;;;;;;5.07;4.28;;;;;;;18.36;47.05;99672.78;5016669;28;22068;-72
2021/01/29 00:52:31;;;;;;;5.75;4.60;;;;;;;18.37;46.90;99661.41;5017062;28;20033;-72
2021/01/29 00:54:56;;;;;;;5.70;3.97;;;;;;;18.33;46.54;99655.38;5015972;28;20030;-72
2021/01/29 00:57:21;;;;;;;5.38;4.40;;;;;;;18.34;47.03;99648.41;5019950;28;20031;-72
2021/01/29 00:59:47;;;;;;;5.70;4.63;;;;;;;18.36;46.94;99651.84;5013169;28;20554;-72
2021/01/29 01:02:12;;;;;;;4.45;3.70;;;;;;;18.36;46.96;99649.22;4995840;28;20069;-71
2021/01/29 01:04:37;;;;;;;5.15;4.65;;;;;;;18.32;46.95;99631.88;5015469;28;20045;-72
2021/01/29 01:07:03;;;;;;;4.50;3.83;;;;;;;18.31;47.16;99630.13;5010843;28;20054;-72
2021/01/29 01:09:29;;;;;;;5.55;4.43;;;;;;;18.34;46.97;99624.84;5014254;28;20084;-72
2021/01/29 01:11:54;;;;;;;4.97;4.30;;;;;;;18.32;46.94;99610.94;5012513;28;20056;-72
2021/01/29 01:14:19;;;;;;;4.75;4.22;;;;;;;18.34;46.97;99622.22;4985633;28;20041;-72
2021/01/29 01:16:45;;;;;;;5.22;4.68;;;;;;;18.32;46.98;99609.16;5003588;28;20034;-72
2021/01/29 01:19:10;;;;;;;3.85;3.47;;;;;;;18.29;47.10;99600.56;4994683;28;20029;-72
2021/01/29 01:21:36;;;;;;;11.20;4.53;;;;;;;18.32;46.86;99603.94;5009553;28;20045;-72
2021/01/29 01:24:02;;;;;;;4.90;4.32;;;;;;;18.32;47.04;99593.47;4988884;28;20049;-72
2021/01/29 01:26:27;;;;;;;7.25;5.00;;;;;;;18.28;46.95;99591.84;5014237;28;20042;-72
2021/01/29 01:28:53;;;;;;;4.93;3.90;;;;;;;18.28;46.96;99589.22;5001637;28;20480;-72
2021/01/29 01:31:18;;;;;;;4.95;4.15;;;;;;;18.29;46.86;99577.00;5012524;28;20049;-72
2021/01/29 01:33:43;;;;;;;4.30;3.58;;;;;;;18.29;47.12;99577.88;4999219;28;20168;-72
2021/01/29 01:36:09;;;;;;;4.78;3.83;;;;;;;18.28;46.86;99568.28;5012538;28;20037;-72
2021/01/29 01:38:35;;;;;;;5.35;4.03;;;;;;;18.30;46.97;99569.13;5018426;28;20481;-72
2021/01/29 01:41:00;;;;;;;5.72;4.15;;;;;;;18.29;47.10;99563.91;4993185;28;20029;-72
2021/01/29 01:43:26;;;;;;;5.15;3.80;;;;;;;18.27;47.00;99553.50;5018924;28;20042;-72
2021/01/29 01:46:00;;;;;;;4.43;3.78;;;;;;;18.26;47.15;99540.44;5017939;28;20030;-72
2021/01/29 01:48:47;;;;;;;4.95;3.78;;;;;;;18.27;47.17;99550.00;5016856;28;20048;-72
2021/01/29 01:51:21;;;;;;;5.10;4.28;;;;;;;18.26;46.96;99537.81;5018422;28;20037;-72
2021/01/29 01:53:53;;;;;;;4.82;3.85;;;;;;;18.24;46.99;99521.28;5019236;28;20551;-72
2021/01/29 01:56:26;;;;;;;4.38;3.70;;;;;;;18.24;46.87;99516.91;5020453;28;20044;-72
2021/01/29 01:58:57;;;;;;;4.55;3.97;;;;;;;18.23;46.93;99503.88;5023860;28;20396;-72
2021/01/29 02:01:23;;;;;;;4.40;3.88;;;;;;;18.26;47.19;99503.81;5017490;28;20057;-72
2021/01/29 02:03:50;;;;;;;4.55;3.35;;;;;;;18.21;47.29;99493.44;5016368;28;20037;-72
2021/01/29 02:06:16;;;;;;;4.28;3.42;;;;;;;18.24;46.96;99490.75;5004011;28;20030;-72
2021/01/29 02:08:45;;;;;;;4.20;3.60;;;;;;;18.21;47.29;99478.59;5017099;28;20052;-72
2021/01/29 02:11:14;;;;;;;4.03;3.47;;;;;;;18.25;46.87;99473.28;5017302;28;20033;-72
2021/01/29 02:13:40;;;;;;;4.22;3.40;;;;;;;18.25;46.97;99476.78;5013382;28;20026;-72
2021/01/29 02:16:16;;;;;;;5.35;3.90;;;;;;;18.20;46.91;99455.94;5014467;28;20399;-72
2021/01/29 02:19:09;;;;;;;4.78;3.88;;;;;;;18.24;47.08;99453.25;5018189;28;20147;-72
2021/01/29 02:21:56;;;;;;;4.23;3.30;;;;;;;18.24;47.13;99442.78;5021083;28;20025;-72
2021/01/29 02:24:57;;;;;;;5.30;3.28;;;;;;;18.24;47.13;99441.03;5022670;28;20786;-72
2021/01/29 02:27:31;;;;;;;3.60;3.25;;;;;;;18.23;47.02;99430.59;5022086;28;20033;-72
2021/01/29 02:30:24;;;;;;;4.82;3.50;;;;;;;18.22;47.20;99419.28;5016432;28;20053;-72
2021/01/29 02:33:27;;;;;;;3.30;2.92;;;;;;;18.21;47.22;99407.94;5019645;28;20037;-72
2021/01/29 02:36:07;;;;;;;4.63;3.88;;;;;;;18.21;47.14;99407.94;5020019;28;20030;-72
2021/01/29 02:39:01;;;;;;;4.13;3.45;;;;;;;18.17;47.09;99392.41;5016471;28;20039;-71
2021/01/29 02:42:04;;;;;;;5.57;3.78;;;;;;;18.20;47.22;99389.66;5017975;28;20038;-72
2021/01/29 02:44:32;;;;;;;4.82;3.80;;;;;;;18.20;47.16;99376.59;5026041;28;20036;-72
2021/01/29 02:47:24;;;;;;;3.83;3.05;;;;;;;18.17;47.13;99369.72;5019690;28;20488;-72
2021/01/29 02:50:09;;;;;;;3.70;3.20;;;;;;;18.16;47.34;99359.28;5001603;28;20064;-72
2021/01/29 02:52:46;;;;;;;4.88;3.38;;;;;;;18.16;47.18;99356.66;5021434;28;20079;-72
2021/01/29 02:55:21;;;;;;;4.53;3.97;;;;;;;18.14;47.34;99343.63;5016674;28;20396;-72
2021/01/29 02:58:19;;;;;;;4.03;3.67;;;;;;;18.17;47.39;99335.69;5018143;28;20029;-72
2021/01/29 03:01:22;;;;;;;4.82;3.63;;;;;;;18.14;47.31;99327.94;5019722;28;20017;-72
2021/01/29 03:03:54;;;;;;;4.53;3.65;;;;;;;18.12;47.23;99313.16;5017162;28;20534;-72
2021/01/29 03:06:29;;;;;;;4.35;3.17;;;;;;;18.13;47.31;99312.25;5024231;28;20065;-71
2021/01/29 03:09:04;;;;;;;3.35;3.03;;;;;;;18.12;47.47;99302.69;5009209;28;20885;-72
2021/01/29 03:11:45;;;;;;;3.75;3.28;;;;;;;18.13;47.39;99293.97;5018772;28;20090;-72
2021/01/29 03:14:14;;;;;;;3.30;2.90;;;;;;;18.12;47.28;99290.47;5019115;28;20032;-72
2021/01/29 03:16:49;;;;;;;4.95;4.22;;;;;;;18.15;47.48;99287.78;5016132;28;20033;-72
2021/01/29 03:19:38;;;;;;;3.85;2.95;;;;;;;18.16;47.41;99278.19;5018644;28;20029;-72
2021/01/29 03:22:31;;;;;;;3.90;3.53;;;;;;;18.15;47.40;99266.84;5017515;28;20042;-72
2021/01/29 03:25:04;;;;;;;4.33;3.90;;;;;;;18.15;47.46;99264.25;5019027;28;20029;-72
2021/01/29 03:27:37;;;;;;;3.55;3.10;;;;;;;18.15;47.36;99260.75;5016899;28;20102;-72
2021/01/29 03:30:10;;;;;;;4.10;3.28;;;;;;;18.21;47.03;99253.59;5015687;28;20037;-72
2021/01/29 03:32:38;;;;;;;3.85;3.03;;;;;;;18.32;47.14;99240.19;5017437;28;20029;-72
2021/01/29 03:35:21;;;;;;;3.90;3.50;;;;;;;18.40;47.12;99242.59;5015458;28;20013;-72
2021/01/29 03:38:04;;;;;;;3.63;3.10;;;;;;;18.37;47.17;99235.69;5011824;28;20033;-72
2021/01/29 03:40:31;;;;;;;3.67;2.95;;;;;;;18.39;46.98;99228.66;5018732;28;20120;-72
2021/01/29 03:43:01;;;;;;;3.65;3.13;;;;;;;18.46;46.82;99224.91;5017595;28;20092;-72
2021/01/29 03:45:59;;;;;;;5.40;3.28;;;;;;;18.49;46.97;99221.38;5013791;28;20061;-72
2021/01/29 03:48:59;;;;;;;4.68;3.15;;;;;;;18.49;47.08;99210.88;5009526;28;20038;-72
2021/01/29 03:51:52;;;;;;;3.45;3.15;;;;;;;18.55;46.68;99202.88;5014952;28;20040;-72
2021/01/29 03:54:26;;;;;;;4.15;3.30;;;;;;;18.55;46.88;99187.16;5018385;28;20025;-72
2021/01/29 03:57:22;;;;;;;3.13;2.55;;;;;;;18.55;47.19;99195.00;5020023;28;20068;-72
2021/01/29 04:00:05;;;;;;;3.58;2.78;;;;;;;18.59;47.01;99182.69;5019270;28;20025;-72
2021/01/29 04:02:41;;;;;;;3.72;3.08;;;;;;;18.64;46.71;99181.66;5025857;28;20025;-73
2021/01/29 04:05:22;;;;;;;3.05;2.50;;;;;;;18.62;47.11;99182.59;5012507;28;20081;-73
2021/01/29 04:07:53;;;;;;;4.13;2.40;;;;;;;18.60;46.96;99177.41;5015916;28;20049;-72
2021/01/29 04:10:25;;;;;;;3.20;2.65;;;;;;;18.67;47.08;99171.09;5008151;28;20029;-72
2021/01/29 04:13:23;;;;;;;2.70;2.10;;;;;;;18.67;47.03;99165.00;5015456;28;20116;-72
2021/01/29 04:16:00;;;;;;;3.63;2.70;;;;;;;18.66;46.93;99168.50;5017182;28;20021;-72
2021/01/29 04:18:32;;;;;;;3.22;2.35;;;;;;;18.70;47.16;99160.50;5016930;28;20044;-72
2021/01/29 04:21:06;;;;;;;3.25;2.13;;;;;;;18.74;47.17;99159.50;5020778;28;20029;-72
2021/01/29 04:23:48;;;;;;;2.47;2.03;;;;;;;18.71;46.70;99148.25;5018730;28;20026;-72
2021/01/29 04:26:19;;;;;;;3.50;2.75;;;;;;;18.71;47.18;99145.63;5014621;28;20175;-72
2021/01/29 04:28:49;;;;;;;3.47;2.50;;;;;;;18.73;46.97;99128.13;5016051;28;20032;-72
2021/01/29 04:31:19;;;;;;;2.78;2.50;;;;;;;18.75;47.13;99142.03;5015923;28;20037;-72
2021/01/29 04:33:53;;;;;;;3.30;2.40;;;;;;;18.72;47.06;99129.88;5017264;28;20022;-72
2021/01/29 04:36:23;;;;;;;3.15;2.38;;;;;;;18.76;47.14;99113.19;5018564;28;20104;-72
2021/01/29 04:39:13;;;;;;;3.13;2.08;;;;;;;18.81;47.08;99116.50;5008932;28;20053;-72
2021/01/29 04:41:55;;;;;;;2.80;2.50;;;;;;;18.77;47.32;99101.78;5016950;28;20024;-72
2021/01/29 04:44:50;;;;;;;4.43;2.28;;;;;;;18.81;47.20;99103.41;5018087;28;20030;-71
2021/01/29 04:47:24;;;;;;;2.75;1.88;;;;;;;18.84;47.28;99091.94;5024008;28;20400;-72
2021/01/29 04:50:10;;;;;;;3.17;2.08;;;;;;;18.81;46.95;99087.69;5014359;28;20037;-72
2021/01/29 04:52:57;;;;;;;3.88;1.95;;;;;;;18.81;47.26;99082.47;5019017;28;20088;-72
2021/01/29 04:55:33;;;;;;;3.50;2.13;;;;;;;18.83;47.19;99085.00;5019031;28;20034;-72
2021/01/29 04:58:16;;;;;;;2.13;1.88;;;;;;;18.85;47.30;99076.19;5013906;28;20104;-72
2021/01/29 05:01:22;;;;;;;2.47;1.70;;;;;;;18.77;47.52;99059.91;5014699;28;20025;-72
2021/01/29 05:03:59;;;;;;;2.40;1.88;;;;;;;18.77;47.69;99066.91;5001487;28;20044;-72
2021/01/29 05:06:43;;;;;;;2.15;1.80;;;;;;;18.72;47.77;99081.91;5013421;28;20029;-72
2021/01/29 05:09:46;;;;;;;2.30;1.92;;;;;;;18.69;47.88;99068.94;5020942;28;20061;-72
2021/01/29 05:12:39;;;;;;;2.15;1.83;;;;;;;18.65;47.99;99070.78;5012133;28;20042;-72
2021/01/29 05:15:26;;;;;;;2.25;1.73;;;;;;;18.65;48.01;99075.16;5020074;28;20041;-72
2021/01/29 05:18:12;;;;;;;4.20;1.65;;;;;;;18.62;48.08;99065.66;5021506;28;20022;-72
2021/01/29 05:21:20;;;;;;;3.58;2.15;;;;;;;18.62;48.17;99076.13;5020306;28;20052;-72
2021/01/29 05:24:31;;;;;;;2.13;1.60;;;;;;;18.61;47.86;99078.78;5018723;28;20132;-73
2021/01/29 05:27:22;;;;;;;2.85;1.80;;;;;;;18.65;47.83;99068.16;5022857;28;20035;-73
2021/01/29 05:30:10;;;;;;;2.80;1.80;;;;;;;18.66;47.88;99072.50;5017546;28;20040;-72
2021/01/29 05:33:07;;;;;;;2.00;1.40;;;;;;;18.80;47.61;99077.28;5015839;28;20083;-72
2021/01/29 05:35:51;;;;;;;3.55;1.67;;;;;;;18.86;47.55;99083.16;4995431;28;20057;-72
2021/01/29 05:38:31;;;;;;;2.42;1.50;;;;;;;18.87;47.35;99084.00;5016557;28;20130;-72
2021/01/29 05:41:14;;;;;;;2.05;1.55;;;;;;;18.99;47.22;99087.97;5020649;28;20033;-71
2021/01/29 05:43:42;;;;;;;2.40;1.60;;;;;;;19.04;47.11;99088.66;5021065;28;20025;-72
2021/01/29 05:46:22;;;;;;;2.28;1.65;;;;;;;18.99;47.17;99086.19;5021867;28;20160;-71
2021/01/29 05:49:12;;;;;;;4.93;2.10;;;;;;;19.02;47.12;99083.47;5020780;28;20037;-72
2021/01/29 05:52:13;;;;;;;2.65;1.65;;;;;;;19.10;47.15;99085.81;5021997;28;20695;-71
2021/01/29 05:54:57;;;;;;;2.38;1.52;;;;;;;19.04;47.21;99086.91;5019897;28;20040;-72
2021/01/29 05:57:46;;;;;;;4.22;1.95;;;;;;;19.09;47.11;99098.06;5021973;28;20033;-71
2021/01/29 06:00:41;;;;;;;4.93;2.67;;;;;;;19.16;47.17;99090.84;5018978;28;20524;-71
2021/01/29 06:03:39;;;;;;;2.75;1.80;;;;;;;19.10;47.10;99097.16;5016665;28;20061;-71
2021/01/29 06:06:36;;;;;;;2.60;1.42;;;;;;;19.09;47.20;99090.19;4975138;28;20485;-72
2021/01/29 06:09:31;;;;;;;3.47;1.67;;;;;;;19.13;47.35;99109.28;4975241;28;20053;-71
2021/01/29 06:12:19;;;;;;;2.47;1.63;;;;;;;19.16;47.27;99117.91;5019738;28;20034;-71
2021/01/29 06:15:06;;;;;;;2.88;1.92;;;;;;;19.19;47.22;99112.56;5015950;28;20028;-71
2021/01/29 06:17:47;;;;;;;2.10;1.20;;;;;;;19.24;47.12;99112.38;5018728;28;20527;-72
2021/01/29 06:20:43;;;;;;;4.57;1.55;;;;;;;19.21;47.09;99117.75;5023879;28;20468;-71
2021/01/29 06:23:24;;;;;;;2.53;1.52;;;;;;;19.19;47.34;99122.19;5017553;28;20029;-71
2021/01/29 06:26:19;;;;;;;6.20;1.80;;;;;;;19.16;47.33;99125.78;5021471;28;20484;-73
2021/01/29 06:29:18;;;;;;;9.45;2.17;;;;;;;19.13;47.38;99133.72;5027931;28;20083;-72
2021/01/29 06:32:19;;;;;;;4.43;2.63;;;;;;;19.22;47.41;99127.31;5023293;28;20105;-72
2021/01/29 06:35:06;;;;;;;7.22;2.83;;;;;;;19.23;47.26;99123.78;5018430;28;20029;-72
2021/01/29 06:37:48;;;;;;;5.07;2.58;;;;;;;19.19;47.42;99128.28;5031109;28;20025;-72
2021/01/29 06:40:32;;;;;;;7.10;2.55;;;;;;;19.25;47.41;99132.44;5025868;28;20049;-72
2021/01/29 06:43:07;;;;;;;8.77;3.33;;;;;;;19.24;47.35;99128.13;5017739;28;20499;-72
2021/01/29 06:46:22;;;;;;;7.45;2.95;;;;;;;19.21;47.69;99138.72;5022241;28;20451;-72
2021/01/29 06:49:09;;;;;;;6.28;3.42;;;;;;;19.26;47.63;99132.41;5022517;28;20057;-72
2021/01/29 06:51:41;;;;;;;7.05;2.90;;;;;;;19.28;47.56;99134.97;5023505;28;20487;-72
2021/01/29 06:54:13;;;;;;;7.10;2.50;;;;;;;19.24;47.80;99147.31;5022723;28;20519;-72
2021/01/29 06:56:57;;;;;;;4.75;2.60;;;;;;;19.31;47.63;99136.63;5029489;28;20033;-71
2021/01/29 06:59:42;;;;;;;7.32;2.50;;;;;;;19.37;48.03;99139.88;5014303;28;20022;-70
2021/01/29 07:02:29;;;;;;;5.72;2.70;;;;;;;19.33;48.61;99134.81;5017318;28;20025;-71
2021/01/29 07:05:23;;;;;;;5.00;2.75;;;;;;;19.38;48.70;99140.72;5026535;28;20041;-72
2021/01/29 07:08:03;;;;;;;6.70;3.03;;;;;;;19.34;48.54;99155.72;5015156;28;20119;-71
2021/01/29 07:10:48;;;;;;;8.60;2.95;;;;;;;19.29;48.64;99155.03;5023383;28;20049;-71
2021/01/29 07:13:34;;;;;;;6.85;2.80;;;;;;;19.36;48.56;99159.13;5030033;28;20471;-72
2021/01/29 07:16:18;;;;;;;5.32;2.33;;;;;;;19.34;48.46;99160.97;5022560;28;20059;-71
2021/01/29 07:19:08;;;;;;;7.95;2.80;;;;;;;19.29;48.57;99160.28;5024864;28;20025;-72
2021/01/29 07:22:22;;;;;;;5.45;2.28;;;;;;;19.37;48.30;99175.72;5024389;28;20033;-71
2021/01/29 07:25:18;;;;;;;4.45;2.33;;;;;;;19.31;48.49;99174.19;5032688;28;20029;-72
2021/01/29 07:27:53;;;;;;;5.30;2.70;;;;;;;19.32;48.41;99180.28;5017484;28;20033;-71
2021/01/29 07:30:30;;;;;;;4.53;2.92;;;;;;;19.38;48.28;99194.00;5026676;28;20094;-71
2021/01/29 07:33:14;;;;;;;5.20;2.67;;;;;;;19.34;48.34;99183.72;5021203;28;20025;-72
2021/01/29 07:36:06;;;;;;;6.90;2.83;;;;;;;19.34;48.33;99199.44;5026670;28;20030;-71
2021/01/29 07:38:53;;;;;;;6.10;2.25;;;;;;;19.39;48.17;99202.72;5016310;28;20468;-71
2021/01/29 07:41:33;;;;;;;6.70;2.78;;;;;;;19.35;48.20;99201.97;5024359;28;20025;-71
2021/01/29 07:44:04;;;;;;;3.25;1.73;;;;;;;19.33;48.35;99203.81;5013457;28;20484;-72
2021/01/29 07:46:46;;;;;;;4.50;1.90;;;;;;;19.38;48.23;99206.25;5018109;28;20040;-71
2021/01/29 07:49:17;;;;;;;4.95;3.17;;;;;;;19.37;48.18;99215.03;5033040;28;20047;-71
2021/01/29 07:51:59;;;;;;;5.05;2.50;;;;;;;19.35;48.34;99217.69;5024275;28;20060;-72
2021/01/29 07:54:46;;;;;;;4.32;2.75;;;;;;;19.43;48.07;99227.94;5032548;28;20033;-71
2021/01/29 07:57:27;;;;;;;5.72;2.00;;;;;;;19.39;48.16;99221.09;5033619;28;20079;-71
2021/01/29 08:00:15;;;;;;;4.45;2.67;;;;;;;19.38;48.24;99233.34;5030283;28;20025;-71
2021/01/29 08:03:19;;;;;;;6.47;2.33;;;;;;;19.43;48.01;99234.03;5023221;28;20076;-71
2021/01/29 08:06:09;;;;;;;5.50;2.75;;;;;;;19.38;47.98;99243.81;5023338;28;20442;-72
2021/01/29 08:08:43;;;;;;;3.92;2.05;;;;;;;19.40;48.22;99239.38;5013972;28;20120;-71
2021/01/29 08:11:09;;;;;;;3.42;1.90;;;;;;;19.43;47.86;99244.53;5014858;28;20395;-71
2021/01/29 08:13:59;;;;;;;3.97;2.55;;;;;;;19.40;48.15;99257.72;5005643;28;20060;-71
2021/01/29 08:16:28;;;;;;;5.43;2.47;;;;;;;19.41;48.10;99263.84;5023123;28;20029;-71
2021/01/29 08:19:02;;;;;;;3.13;2.20;;;;;;;19.46;47.84;99254.91;5028696;28;20372;-71
2021/01/29 08:21:42;;;;;;;4.65;2.25;;;;;;;19.42;47.90;99266.41;5020081;28;20175;-71
2021/01/29 08:24:23;;;;;;;4.35;1.75;;;;;;;19.33;48.18;99271.97;5014613;28;20385;-71
2021/01/29 08:27:26;;;;;;;4.68;2.67;;;;;;;19.31;48.14;99286.88;5015073;28;20524;-71
2021/01/29 08:29:57;;;;;;;4.35;2.40;;;;;;;19.28;48.49;99286.97;5017578;28;20029;-72
2021/01/29 08:32:55;;;;;;;4.57;2.20;;;;;;;19.25;48.47;99292.31;5016497;28;20122;-71
2021/01/29 08:35:49;;;;;;;5.28;2.38;;;;;;;19.21;48.59;99298.56;5017634;28;20476;-71
2021/01/29 08:38:32;;;;;;;3.65;1.60;;;;;;;19.21;48.60;99293.34;5014715;28;20108;-72
2021/01/29 08:41:22;;;;;;;4.72;1.65;;;;;;;19.22;48.88;99303.75;5025601;28;20136;-72
2021/01/29 08:44:20;;;;;;;2.80;1.70;;;;;;;19.36;48.14;99299.81;5026813;28;20053;-71
2021/01/29 08:46:53;;;;;;;3.65;1.85;;;;;;;19.37;48.44;99310.25;5025914;28;20026;-72
2021/01/29 08:49:39;;;;;;;7.30;2.95;;;;;;;19.36;48.45;99307.69;5029188;28;20036;-72
2021/01/29 08:52:42;;;;;;;3.83;1.92;;;;;;;19.44;48.12;99300.44;5029622;28;20029;-71
2021/01/29 08:55:42;;;;;;;3.43;2.23;;;;;;;19.41;48.10;99314.50;5020986;28;20026;-71
2021/01/29 08:58:16;;;;;;;4.60;1.73;;;;;;;19.41;48.17;99311.03;5032792;28;20030;-71
2021/01/29 09:00:44;;;;;;;3.30;1.73;;;;;;;19.44;47.94;99311.78;5027862;28;20151;-71
2021/01/29 09:03:39;;;;;;;4.75;1.95;;;;;;;19.44;48.01;99314.41;5027787;28;20029;-71
2021/01/29 09:06:18;;;;;;;4.80;2.28;;;;;;;19.42;48.19;99323.22;5025004;28;20388;-72
2021/01/29 09:08:44;;;;;;;4.05;1.98;;;;;;;19.47;47.87;99313.47;5012247;28;20095;-71
2021/01/29 09:11:21;;;;;;;4.78;2.05;;;;;;;19.48;48.03;99313.38;5011470;28;20041;-71
2021/01/29 09:13:54;;;;;;;5.78;1.95;;;;;;;19.45;48.11;99318.75;5027061;28;20036;-71
2021/01/29 09:16:27;;;;;;;2.83;1.90;;;;;;;19.55;47.82;99308.84;5013797;28;20016;-71
2021/01/29 09:19:05;;;;;;;;;;;;;;;19.53;47.76;99322.00;5014852;28;20112;-72
2021/01/29 09:22:03;;;;;;;3.70;1.48;;;;;;;19.51;47.89;99326.41;5017138;28;19996;-72
2021/01/29 09:24:53;;;;;;;4.32;1.42;;;;;;;19.58;47.77;99330.56;5018487;28;20357;-72
2021/01/29 09:27:31;;;;;;;3.80;1.88;;;;;;;19.57;47.59;99335.88;5013304;28;20561;-72
2021/01/29 09:30:01;;;;;;;2.92;1.50;;;;;;;19.52;47.96;99343.00;5033349;28;20510;-71
2021/01/29 09:32:45;;;;;;;3.80;1.80;;;;;;;19.62;47.69;99347.03;5029550;28;20084;-71
2021/01/29 09:35:17;;;;;;;4.93;1.75;;;;;;;19.58;47.67;99340.22;5026199;28;20018;-71
2021/01/29 09:37:52;;;;;;;2.58;1.50;;;;;;;19.55;47.75;99342.91;5020756;28;20036;-71
2021/01/29 09:40:30;;;;;;;5.22;1.52;;;;;;;19.65;48.08;99346.09;5011937;28;20038;-71
2021/01/29 09:43:20;;;;;;;4.00;1.88;;;;;;;19.62;47.62;99353.16;5016704;28;20033;-71
2021/01/29 09:45:53;;;;;;;3.63;1.40;;;;;;;19.54;47.88;99359.56;5014043;28;20025;-71
2021/01/29 09:48:21;;;;;;;3.38;1.70;;;;;;;19.66;47.71;99360.91;5015888;28;20029;-71
2021/01/29 09:51:01;;;;;;;3.90;1.55;;;;;;;19.61;47.57;99371.53;5021760;28;20044;-71
2021/01/29 09:53:33;;;;;;;3.92;1.67;;;;;;;19.57;47.67;99375.19;5028543;28;20033;-72
2021/01/29 09:56:05;;;;;;;2.95;1.77;;;;;;;19.67;47.61;99376.59;5022575;28;20026;-72
2021/01/29 09:59:07;;;;;;;4.47;1.30;;;;;;;19.64;47.54;99376.69;5027397;28;20068;-72
2021/01/29 10:01:39;;;;;;;3.97;1.92;;;;;;;19.61;47.57;99376.78;5017588;28;20034;-72
2021/01/29 10:04:20;;;;;;;3.33;1.60;;;;;;;19.67;47.65;99379.22;5025069;28;20026;-73
2021/01/29 10:06:58;;;;;;;2.38;1.33;;;;;;;19.66;47.55;99380.13;5028644;28;20376;-73
2021/01/29 10:09:29;;;;;;;3.70;1.77;;;;;;;19.59;47.63;99376.88;5020230;28;20103;-72
2021/01/29 10:12:05;;;;;;;3.03;1.42;;;;;;;19.63;47.58;99373.22;5030516;28;20044;-71
2021/01/29 10:14:40;;;;;;;3.25;1.30;;;;;;;19.66;47.62;99382.75;5016453;28;20079;-71
2021/01/29 10:17:23;;;;;;;4.57;1.55;;;;;;;19.63;47.65;99380.22;5028558;28;20053;-71
2021/01/29 10:19:53;;;;;;;3.38;1.48;;;;;;;19.60;47.76;99377.72;5031486;28;20029;-71
2021/01/29 10:22:44;;;;;;;3.40;1.40;;;;;;;19.69;47.46;99384.44;5032311;28;20029;-71
2021/01/29 10:25:25;;;;;;;3.40;1.88;;;;;;;19.65;47.37;99383.66;5019491;28;20029;-70
2021/01/29 10:28:14;;;;;;;2.25;1.35;;;;;;;19.64;47.55;99381.94;5014870;28;20025;-72
2021/01/29 10:30:58;;;;;;;4.22;1.80;;;;;;;19.64;47.69;99384.56;5016518;28;20120;-72
2021/01/29 10:33:34;;;;;;;4.03;2.50;;;;;;;19.64;47.82;99389.81;5020882;28;20041;-72
2021/01/29 10:36:27;;;;;;;7.05;1.60;;;;;;;19.65;47.64;99390.66;5015521;28;20498;-72
2021/01/29 10:39:00;;;;;;;4.85;1.42;;;;;;;19.67;47.75;99394.09;5015884;28;20044;-73
2021/01/29 10:41:59;;;;;;;2.97;1.20;;;;;;;19.67;47.69;99381.84;5017803;28;20564;-73
2021/01/29 10:44:29;;;;;;;3.80;1.50;;;;;;;19.69;47.74;99387.03;5011889;28;20049;-72
2021/01/29 10:47:37;;;;;;;4.47;1.63;;;;;;;19.71;47.64;99393.97;5025389;28;20022;-73
2021/01/29 10:50:14;;;;;;;4.80;1.70;;;;;;;19.68;47.73;99386.19;5010401;28;20033;-73
2021/01/29 10:53:01;;;;;;;4.80;1.77;;;;;;;19.68;47.94;99378.31;5020736;28;20589;-73
2021/01/29 10:55:34;;;;;;;3.65;1.92;;;;;;;19.72;47.71;99382.56;5023435;28;20468;-72
2021/01/29 10:58:31;;;;;;;3.05;1.55;;;;;;;19.70;47.64;99386.13;5027658;28;20049;-71
2021/01/29 11:01:00;;;;;;;2.38;1.40;;;;;;;19.74;47.69;99378.09;5019082;28;20037;-72
2021/01/29 11:04:06;;;;;;;7.15;1.92;;;;;;;19.73;47.57;99391.28;5018499;28;20030;-72
2021/01/29 11:06:52;;;;;;;2.97;1.90;;;;;;;19.70;47.65;99405.34;5017105;28;20073;-72
2021/01/29 11:09:41;;;;;;;3.58;1.50;;;;;;;19.72;47.37;99406.19;5016419;28;20867;-72
2021/01/29 11:12:22;;;;;;;3.33;1.65;;;;;;;19.72;47.56;99407.94;5016231;28;20029;-72
2021/01/29 11:14:57;;;;;;;14.73;1.83;;;;;;;19.71;47.60;99406.22;5016036;28;20036;-72
2021/01/29 11:17:32;;;;;;;2.58;1.23;;;;;;;19.75;47.44;99415.69;5015907;28;20096;-72
2021/01/29 11:20:01;;;;;;;4.22;1.80;;;;;;;19.74;47.55;99416.59;5016862;28;20543;-72
2021/01/29 11:22:43;;;;;;;4.07;2.13;;;;;;;19.72;47.46;99416.66;5017461;28;20025;-72
2021/01/29 11:25:49;;;;;;;3.15;1.88;;;;;;;19.71;47.57;99412.31;5034915;28;20026;-72
2021/01/29 11:28:33;;;;;;;3.22;1.52;;;;;;;19.73;47.67;99418.38;5034832;28;20105;-72
2021/01/29 11:31:14;;;;;;;;;;;;;;;19.73;47.56;99421.00;5034419;28;20108;-72
2021/01/29 11:33:44;;;;;;;4.15;1.65;;;;;;;19.75;47.42;99428.78;5026346;28;19948;-71
2021/01/29 11:36:24;;;;;;;3.97;1.70;;;;;;;19.74;47.38;99419.22;5014308;28;20028;-72
2021/01/29 11:38:52;;;;;;;2.50;1.35;;;;;;;19.73;47.58;99428.00;5016076;28;20076;-71
2021/01/29 11:41:56;;;;;;;3.33;1.30;;;;;;;19.76;47.53;99425.28;5013713;28;20048;-72
2021/01/29 11:44:43;;;;;;;2.63;1.38;;;;;;;19.76;47.46;99430.50;5014581;28;20025;-72
2021/01/29 11:47:30;;;;;;;2.85;1.50;;;;;;;19.75;47.43;99428.78;5015688;28;20037;-72
2021/01/29 11:50:13;;;;;;;5.70;1.73;;;;;;;19.77;47.42;99440.09;5033173;28;20379;-72
2021/01/29 11:52:41;;;;;;;;;;;;;;;19.76;47.30;99438.38;5014764;28;20045;-72
2021/01/29 11:55:27;;;;;;;2.78;1.52;;;;;;;19.75;47.54;99436.66;5015593;28;19913;-72
2021/01/29 11:58:10;;;;;;;1.83;1.30;;;;;;;19.77;47.39;99434.84;5031464;28;20033;-72
2021/01/29 12:00:53;;;;;;;1.88;1.10;;;;;;;19.74;47.45;99438.44;5015219;28;20022;-72
2021/01/29 12:03:32;;;;;;;3.28;1.45;;;;;;;19.75;47.36;99442.78;5024772;28;20447;-72
2021/01/29 12:06:12;;;;;;;3.42;1.40;;;;;;;19.77;47.41;99434.84;5018660;28;20112;-72
2021/01/29 12:09:11;;;;;;;1.90;1.30;;;;;;;19.77;47.33;99442.72;5014745;28;20065;-72
2021/01/29 12:11:41;;;;;;;6.63;1.35;;;;;;;19.77;47.26;99432.22;4982305;28;20480;-72
2021/01/29 12:14:33;;;;;;;3.78;1.63;;;;;;;19.78;47.41;99434.81;5014684;28;20037;-72
2021/01/29 12:17:04;;;;;;;3.13;1.38;;;;;;;19.77;47.40;99447.97;5013088;28;20026;-72
2021/01/29 12:19:38;;;;;;;3.15;1.70;;;;;;;19.76;47.70;99441.88;5024489;28;20033;-72
2021/01/29 12:22:37;;;;;;;6.25;1.73;;;;;;;19.78;47.41;99436.56;5015974;28;20033;-72
2021/01/29 12:25:36;;;;;;;2.78;1.35;;;;;;;19.78;47.29;99440.06;5015392;28;20029;-72
2021/01/29 12:28:07;;;;;;;3.35;1.48;;;;;;;19.81;47.13;99441.72;5014563;28;20036;-72
2021/01/29 12:30:44;;;;;;;3.67;1.27;;;;;;;19.80;47.19;99442.63;5022425;28;20542;-71
2021/01/29 12:33:20;;;;;;;2.53;1.45;;;;;;;19.79;47.40;99443.53;5031573;28;20091;-71
2021/01/29 12:35:52;;;;;;;2.90;1.30;;;;;;;19.81;47.22;99437.34;5015376;28;20151;-72